Time;durP1;ratioP1;P1;durP2;ratioP2;P2;SDS_P1;SDS_P2;PMS_P1;PMS_P2;Temp;Humidity;BMP_temperature;BMP_pressure;BME280_temperature;BME280_humidity;BME280_pressure;Samples;Min_cycle;Max_cycle;Signal;HPM_P1;HPM_P2
2024/04/08 00:01:29;;;;;;;1.00;0.40;;;16.40;59.50;;;;;;5051459;28;20065;-77
2024/04/08 00:03:55;;;;;;;1.80;1.33;;;16.40;59.50;;;;;;5053512;28;20382;-71
2024/04/08 00:06:21;;;;;;;0.88;0.40;;;16.40;59.60;;;;;;5052389;28;20037;-72
2024/04/08 00:08:47;;;;;;;1.23;0.77;;;16.30;59.30;;;;;;5035790;28;20079;-72
2024/04/08 00:11:13;;;;;;;0.80;0.60;;;16.30;59.30;;;;;;5052882;28;20037;-77
2024/04/08 00:13:39;;;;;;;1.73;0.70;;;16.30;59.60;;;;;;5053164;28;20524;-71
2024/04/08 00:16:06;;;;;;;0.55;0.50;;;16.20;59.50;;;;;;5052881;28;20045;-77
2024/04/08 00:18:33;;;;;;;0.82;0.43;;;16.20;60.10;;;;;;5051909;28;20037;-71
2024/04/08 00:21:17;;;;;;;;;;;16.10;60.10;;;;;;5053072;28;20064;-71
2024/04/08 00:23:43;;;;;;;2.63;0.68;;;16.10;61.20;;;;;;5034977;28;19924;-72
2024/04/08 00:26:10;;;;;;;1.02;0.50;;;16.10;61.10;;;;;;5035158;28;20552;-77
2024/04/08 00:28:39;;;;;;;1.40;1.02;;;16.10;61.70;;;;;;5051774;28;20055;-77
2024/04/08 00:31:07;;;;;;;1.65;0.40;;;16.00;61.70;;;;;;5052366;28;20041;-77
2024/04/08 00:33:34;;;;;;;0.93;0.68;;;15.90;61.10;;;;;;5052871;28;20029;-71
2024/04/08 00:36:01;;;;;;;0.68;0.30;;;15.80;61.40;;;;;;5051416;28;20441;-77
2024/04/08 00:38:28;;;;;;;0.30;0.17;;;15.80;61.50;;;;;;5051489;28;20059;-71
2024/04/08 00:40:54;;;;;;;1.73;1.17;;;15.80;61.60;;;;;;5050653;28;20090;-71
2024/04/08 00:43:20;;;;;;;;;;;15.90;62.00;;;;;;5052035;28;20026;-71
2024/04/08 00:45:47;;;;;;;0.68;0.45;;;15.80;62.20;;;;;;5051601;28;19974;-71
2024/04/08 00:48:15;;;;;;;8.82;1.00;;;15.80;62.30;;;;;;5051505;28;20060;-77
2024/04/08 00:50:45;;;;;;;0.20;0.20;;;15.80;61.70;;;;;;5050892;28;20041;-72
2024/04/08 00:53:13;;;;;;;0.90;0.60;;;15.80;61.40;;;;;;5052585;28;20063;-71
2024/04/08 00:55:41;;;;;;;0.10;0.10;;;15.70;61.20;;;;;;5034731;28;20025;-71
2024/04/08 00:58:07;;;;;;;0.30;0.30;;;15.70;61.50;;;;;;5034557;28;20385;-73
2024/04/08 01:00:34;;;;;;;0.43;0.43;;;15.70;61.00;;;;;;5050788;28;20124;-77
2024/04/08 01:03:03;;;;;;;0.38;0.30;;;15.60;61.00;;;;;;5034309;28;20029;-77
2024/04/08 01:05:30;;;;;;;1.05;0.63;;;15.50;61.00;;;;;;5034993;28;20485;-77
2024/04/08 01:07:57;;;;;;;0.82;0.40;;;15.50;61.40;;;;;;5051192;28;20048;-71
2024/04/08 01:10:23;;;;;;;0.88;0.60;;;15.50;60.70;;;;;;5050383;28;20040;-76
2024/04/08 01:12:49;;;;;;;0.85;0.60;;;15.50;60.40;;;;;;5050747;28;20112;-71
2024/04/08 01:15:16;;;;;;;1.30;0.85;;;15.50;61.00;;;;;;5050684;28;20041;-71
2024/04/08 01:17:42;;;;;;;0.20;0.20;;;15.50;60.50;;;;;;5050788;28;20063;-77
2024/04/08 01:20:09;;;;;;;0.35;0.30;;;15.40;60.90;;;;;;5051472;28;20033;-76
2024/04/08 01:22:35;;;;;;;0.10;0.10;;;15.50;61.40;;;;;;5052302;28;20044;-77
2024/04/08 01:25:04;;;;;;;1.23;0.63;;;15.40;61.60;;;;;;5052011;28;20383;-76
2024/04/08 01:27:30;;;;;;;0.75;0.45;;;15.40;61.50;;;;;;5050911;28;20037;-77
2024/04/08 01:29:56;;;;;;;0.20;0.20;;;15.40;62.10;;;;;;5034092;28;20039;-72
2024/04/08 01:32:23;;;;;;;0.20;0.20;;;15.40;62.30;;;;;;5051504;28;20033;-71
2024/04/08 01:34:49;;;;;;;0.43;0.40;;;15.30;62.90;;;;;;5050706;28;20498;-71
2024/04/08 01:37:15;;;;;;;1.38;0.93;;;15.30;63.00;;;;;;5052024;28;20478;-72
2024/04/08 01:39:41;;;;;;;0.60;0.40;;;15.30;63.10;;;;;;5051832;28;20095;-76
2024/04/08 01:42:07;;;;;;;0.65;0.43;;;15.20;63.30;;;;;;5049658;28;20033;-71
2024/04/08 01:44:33;;;;;;;1.13;0.45;;;15.10;63.10;;;;;;5051533;28;20485;-77
2024/04/08 01:46:59;;;;;;;;;;;15.20;62.90;;;;;;5051777;28;20045;-72
2024/04/08 01:49:27;;;;;;;0.10;0.10;;;15.20;63.10;;;;;;5051602;28;19912;-76
2024/04/08 01:51:54;;;;;;;0.52;0.40;;;15.10;63.30;;;;;;5051206;28;20052;-76
2024/04/08 01:54:39;;;;;;;0.30;0.30;;;15.00;62.80;;;;;;5050085;28;20482;-76
2024/04/08 01:57:05;;;;;;;0.15;0.15;;;15.10;63.80;;;;;;5051367;28;20437;-71
2024/04/08 01:59:31;;;;;;;1.13;0.68;;;15.10;63.00;;;;;;5051385;28;20432;-77
2024/04/08 02:01:57;;;;;;;0.98;0.20;;;15.10;62.50;;;;;;5050695;28;20045;-75
2024/04/08 02:04:23;;;;;;;0.77;0.70;;;15.10;62.50;;;;;;5050275;28;20032;-76
2024/04/08 02:06:49;;;;;;;1.08;0.73;;;15.10;62.40;;;;;;5051340;28;20428;-71
2024/04/08 02:09:15;;;;;;;0.25;0.20;;;15.10;62.10;;;;;;5051606;28;20025;-75
2024/04/08 02:11:41;;;;;;;;;;;15.00;61.80;;;;;;5049122;28;20041;-72
2024/04/08 02:14:07;;;;;;;0.20;0.20;;;14.90;62.10;;;;;;5051580;28;19990;-76
2024/04/08 02:16:33;;;;;;;0.38;0.38;;;14.90;61.70;;;;;;5051292;28;20241;-71
2024/04/08 02:18:59;;;;;;;1.63;0.22;;;14.80;61.60;;;;;;5051262;28;20485;-75
2024/04/08 02:21:25;;;;;;;;;;;14.70;62.00;;;;;;5051428;28;20033;-76
2024/04/08 02:23:51;;;;;;;1.60;0.65;;;14.70;62.60;;;;;;5049859;28;20354;-76
2024/04/08 02:26:18;;;;;;;1.30;0.55;;;14.70;62.30;;;;;;5049511;28;20037;-76
2024/04/08 02:28:44;;;;;;;0.20;0.20;;;14.60;62.10;;;;;;5051145;28;20029;-77
2024/04/08 02:31:11;;;;;;;0.60;0.30;;;14.50;61.30;;;;;;5050765;28;20049;-72
2024/04/08 02:33:38;;;;;;;0.88;0.75;;;14.50;61.70;;;;;;5050881;28;20021;-76
2024/04/08 02:36:04;;;;;;;0.90;0.57;;;14.40;61.00;;;;;;5051093;28;20037;-77
2024/04/08 02:38:32;;;;;;;0.45;0.43;;;14.50;62.20;;;;;;5049933;28;20131;-72
2024/04/08 02:40:59;;;;;;;0.43;0.28;;;14.40;61.80;;;;;;5049440;28;20053;-72
2024/04/08 02:43:26;;;;;;;1.10;1.00;;;14.40;62.10;;;;;;5050865;28;20033;-76
2024/04/08 02:45:52;;;;;;;0.47;0.47;;;14.40;62.60;;;;;;5050881;28;20044;-71
2024/04/08 02:48:20;;;;;;;1.00;0.45;;;14.40;62.70;;;;;;5051040;28;20045;-71
2024/04/08 02:50:47;;;;;;;0.43;0.30;;;14.50;63.10;;;;;;5050561;28;20037;-71
2024/04/08 02:53:13;;;;;;;0.45;0.45;;;14.40;63.20;;;;;;5049839;28;20033;-76
2024/04/08 02:55:39;;;;;;;2.35;0.43;;;14.50;63.20;;;;;;5049478;28;20059;-72
2024/04/08 02:58:05;;;;;;;0.93;0.55;;;14.50;62.80;;;;;;5032625;28;20029;-77
2024/04/08 03:00:31;;;;;;;0.65;0.47;;;14.40;62.80;;;;;;5048897;28;20095;-71
2024/04/08 03:02:57;;;;;;;0.52;0.28;;;14.50;62.70;;;;;;5050402;28;20033;-76
2024/04/08 03:05:27;;;;;;;0.95;0.57;;;14.50;62.80;;;;;;5050392;28;20087;-72
2024/04/08 03:07:53;;;;;;;0.28;0.20;;;14.40;63.00;;;;;;5049034;28;20087;-72
2024/04/08 03:10:19;;;;;;;0.93;0.50;;;14.40;63.20;;;;;;5049931;28;20033;-72
2024/04/08 03:12:45;;;;;;;0.20;0.20;;;14.40;64.00;;;;;;5049048;28;20037;-72
2024/04/08 03:15:11;;;;;;;0.88;0.50;;;14.40;62.70;;;;;;5049333;28;20048;-72
2024/04/08 03:17:37;;;;;;;0.50;0.32;;;14.40;62.50;;;;;;5050745;28;20037;-71
2024/04/08 03:20:04;;;;;;;0.45;0.22;;;14.40;62.70;;;;;;5050401;28;20045;-72
2024/04/08 03:22:30;;;;;;;0.70;0.65;;;14.40;62.10;;;;;;5050839;28;20021;-77
2024/04/08 03:24:57;;;;;;;2.22;1.33;;;14.40;62.60;;;;;;5054140;28;20052;-72
2024/04/08 03:27:23;;;;;;;0.10;0.10;;;14.40;62.50;;;;;;5054242;28;20108;-76
2024/04/08 03:29:51;;;;;;;0.32;0.20;;;14.30;63.00;;;;;;5052795;28;20512;-72
2024/04/08 03:32:17;;;;;;;0.25;0.25;;;14.30;63.10;;;;;;5052064;28;20048;-72
2024/04/08 03:34:43;;;;;;;0.32;0.10;;;14.30;63.00;;;;;;5054110;28;20029;-72
2024/04/08 03:37:28;;;;;;;0.93;0.60;;;14.30;63.00;;;;;;5053869;28;20076;-76
2024/04/08 03:39:54;;;;;;;0.20;0.20;;;14.30;63.00;;;;;;5054021;28;20021;-76
2024/04/08 03:42:24;;;;;;;0.30;0.22;;;14.20;62.80;;;;;;5053571;28;20067;-77
2024/04/08 03:44:50;;;;;;;0.35;0.28;;;14.30;62.80;;;;;;5053632;28;20036;-76
2024/04/08 03:47:16;;;;;;;0.13;0.13;;;14.30;62.80;;;;;;5035760;28;20068;-77
2024/04/08 03:49:42;;;;;;;;;;;14.30;63.20;;;;;;5036441;28;20028;-75
2024/04/08 03:52:08;;;;;;;1.38;0.88;;;14.20;63.40;;;;;;5051811;28;20258;-76
2024/04/08 03:54:34;;;;;;;0.20;0.20;;;14.10;63.50;;;;;;5052940;28;20432;-72
2024/04/08 03:57:00;;;;;;;0.52;0.40;;;14.10;63.50;;;;;;5052334;28;20071;-71
2024/04/08 03:59:26;;;;;;;1.27;0.80;;;14.10;63.40;;;;;;5053870;28;20757;-76
2024/04/08 04:01:52;;;;;;;0.80;0.40;;;14.10;63.40;;;;;;5034753;28;20041;-76
2024/04/08 04:04:18;;;;;;;0.32;0.32;;;14.00;63.60;;;;;;5052176;28;20037;-76
2024/04/08 04:06:44;;;;;;;0.73;0.55;;;14.00;63.40;;;;;;5053446;28;20037;-72
2024/04/08 04:09:10;;;;;;;0.77;0.40;;;14.00;63.70;;;;;;5053623;28;20505;-73
2024/04/08 04:11:37;;;;;;;;;;;14.00;63.60;;;;;;5052027;28;20063;-71
2024/04/08 04:14:03;;;;;;;2.92;1.10;;;14.00;63.50;;;;;;5052129;28;19930;-71
2024/04/08 04:16:29;;;;;;;0.15;0.15;;;14.00;63.20;;;;;;5053356;28;20045;-71
2024/04/08 04:18:55;;;;;;;3.50;1.15;;;14.00;63.30;;;;;;5051898;28;20037;-76
2024/04/08 04:21:21;;;;;;;0.88;0.55;;;14.00;63.30;;;;;;5052650;28;20075;-72
2024/04/08 04:23:47;;;;;;;0.35;0.32;;;13.90;63.20;;;;;;5051752;28;20033;-72
2024/04/08 04:26:13;;;;;;;0.28;0.28;;;13.80;63.20;;;;;;5051667;28;20037;-72
2024/04/08 04:28:39;;;;;;;0.30;0.30;;;13.80;63.00;;;;;;5053032;28;20041;-72
2024/04/08 04:31:05;;;;;;;0.10;0.10;;;13.80;63.30;;;;;;5034293;28;20547;-75
2024/04/08 04:33:31;;;;;;;0.38;0.20;;;13.80;63.70;;;;;;5050478;28;20048;-76
2024/04/08 04:35:59;;;;;;;1.33;1.10;;;13.70;63.90;;;;;;5051287;28;20033;-76
2024/04/08 04:38:26;;;;;;;0.60;0.30;;;13.70;64.00;;;;;;5051539;28;20029;-71
2024/04/08 04:41:13;;;;;;;0.93;0.55;;;13.80;63.90;;;;;;5050723;28;20045;-76
2024/04/08 04:43:39;;;;;;;0.25;0.20;;;13.80;63.90;;;;;;5052414;28;20109;-76
2024/04/08 04:46:05;;;;;;;2.28;1.95;;;13.80;63.70;;;;;;5052144;28;20079;-76
2024/04/08 04:48:31;;;;;;;0.13;0.13;;;13.80;64.20;;;;;;5034663;28;20025;-71
2024/04/08 04:50:57;;;;;;;;;;;13.80;64.10;;;;;;5034553;28;20123;-76
2024/04/08 04:53:23;;;;;;;0.35;0.35;;;13.80;64.00;;;;;;5051037;28;19912;-72
2024/04/08 04:56:08;;;;;;;0.75;0.45;;;13.70;63.70;;;;;;5052671;28;20033;-71
2024/04/08 04:58:34;;;;;;;0.22;0.22;;;13.70;64.00;;;;;;5051180;28;20037;-74
2024/04/08 05:01:00;;;;;;;2.60;1.27;;;13.70;64.10;;;;;;5051753;28;20052;-77
2024/04/08 05:03:26;;;;;;;0.90;0.45;;;13.70;64.30;;;;;;5052092;28;20041;-76
2024/04/08 05:06:12;;;;;;;2.40;1.65;;;13.70;64.00;;;;;;5034090;28;20037;-77
2024/04/08 05:08:38;;;;;;;0.68;0.52;;;13.80;63.80;;;;;;5052468;28;20443;-76
2024/04/08 05:11:04;;;;;;;0.52;0.40;;;13.80;63.70;;;;;;5051570;28;20087;-77
2024/04/08 05:13:30;;;;;;;0.68;0.30;;;13.80;64.10;;;;;;5052121;28;20437;-72
2024/04/08 05:15:57;;;;;;;0.43;0.43;;;13.80;64.30;;;;;;5050628;28;20045;-72
2024/04/08 05:18:24;;;;;;;0.30;0.30;;;13.80;64.80;;;;;;5034172;28;20445;-72
2024/04/08 05:20:53;;;;;;;;;;;13.80;65.40;;;;;;5050462;28;20367;-72
2024/04/08 05:26:05;;;;;;;0.70;0.43;;;13.80;65.50;;;;;;5050809;28;20083;-72
2024/04/08 05:28:31;;;;;;;;;;;13.90;65.00;;;;;;5052378;28;20045;-71
2024/04/08 05:30:57;;;;;;;1.73;0.63;;;14.00;65.40;;;;;;5049909;28;20010;-72
2024/04/08 05:33:23;;;;;;;0.60;0.50;;;14.10;64.80;;;;;;5051650;28;20031;-76
2024/04/08 05:35:49;;;;;;;;;;;14.30;64.70;;;;;;5034393;28;20037;-71
2024/04/08 05:38:15;;;;;;;2.08;1.13;;;14.40;64.60;;;;;;5050370;28;20266;-71
2024/04/08 05:40:42;;;;;;;;;;;14.40;64.10;;;;;;5033854;28;20148;-76
2024/04/08 05:45:53;;;;;;;1.05;0.60;;;14.60;65.30;;;;;;5049895;28;20056;-72
2024/04/08 05:48:19;;;;;;;;;;;14.80;65.10;;;;;;5034313;28;20065;-76
2024/04/08 05:51:06;;;;;;;1.25;0.70;;;14.90;65.30;;;;;;5033122;28;19997;-76
2024/04/08 05:53:32;;;;;;;2.65;0.98;;;15.00;65.10;;;;;;5051445;28;20394;-76
2024/04/08 05:55:58;;;;;;;0.82;0.43;;;15.10;65.00;;;;;;5049920;28;20051;-71
2024/04/08 05:58:24;;;;;;;3.50;1.90;;;15.20;64.70;;;;;;5049983;28;20033;-72
2024/04/08 06:00:50;;;;;;;2.33;1.50;;;15.40;64.60;;;;;;5050616;28;20509;-71
2024/04/08 06:03:16;;;;;;;;;;;15.50;64.30;;;;;;5033800;28;20033;-75
2024/04/08 06:05:43;;;;;;;1.50;0.95;;;15.60;64.20;;;;;;5049886;28;20007;-72
2024/04/08 06:08:09;;;;;;;1.27;0.93;;;15.70;64.60;;;;;;5051132;28;20468;-72
2024/04/08 06:10:41;;;;;;;;;;;15.80;64.40;;;;;;5051227;28;20086;-71
2024/04/08 06:13:07;;;;;;;0.70;0.52;;;15.90;64.90;;;;;;5050859;28;20328;-77
2024/04/08 06:15:33;;;;;;;1.90;0.90;;;16.00;64.20;;;;;;5051127;28;20082;-72
2024/04/08 06:17:59;;;;;;;2.45;1.15;;;16.10;64.20;;;;;;5049704;28;20111;-71
2024/04/08 06:20:27;;;;;;;1.52;0.73;;;16.30;63.80;;;;;;5050634;28;20041;-72
2024/04/08 06:22:53;;;;;;;0.70;0.43;;;16.50;64.30;;;;;;5050914;28;20029;-76
2024/04/08 06:25:20;;;;;;;0.82;0.65;;;16.60;63.80;;;;;;5049570;28;20044;-77
2024/04/08 06:28:04;;;;;;;1.63;0.52;;;16.80;63.10;;;;;;5049944;28;20093;-72
2024/04/08 06:30:30;;;;;;;2.25;2.08;;;16.90;64.80;;;;;;5049017;28;20067;-77
2024/04/08 06:32:57;;;;;;;0.80;0.40;;;17.10;64.40;;;;;;5033008;28;20643;-77
2024/04/08 06:35:23;;;;;;;1.23;0.60;;;17.20;64.20;;;;;;5050907;28;20030;-72
2024/04/08 06:37:49;;;;;;;1.10;0.80;;;17.30;63.50;;;;;;5050676;28;20044;-72
2024/04/08 06:40:15;;;;;;;;;;;17.50;64.00;;;;;;5050953;28;20108;-77
2024/04/08 06:42:41;;;;;;;1.08;1.02;;;17.70;64.00;;;;;;5051238;28;19921;-71
2024/04/08 06:45:07;;;;;;;1.05;0.55;;;17.80;63.90;;;;;;5050819;28;20036;-74
2024/04/08 06:47:33;;;;;;;0.35;0.20;;;18.10;63.50;;;;;;5049254;28;20045;-72
2024/04/08 06:49:59;;;;;;;0.73;0.47;;;18.20;62.10;;;;;;5049434;28;20041;-72
2024/04/08 06:52:26;;;;;;;1.75;0.60;;;18.50;61.10;;;;;;5048812;28;20052;-72
2024/04/08 06:54:52;;;;;;;;;;;18.70;61.00;;;;;;5033484;28;20552;-76
2024/04/08 06:57:18;;;;;;;0.90;0.57;;;18.90;59.90;;;;;;5050984;28;19944;-77
2024/04/08 06:59:44;;;;;;;0.45;0.38;;;19.00;58.70;;;;;;5053587;28;20029;-72
2024/04/08 07:02:11;;;;;;;1.98;0.50;;;19.30;58.60;;;;;;5052700;28;20579;-77
2024/04/08 07:04:37;;;;;;;0.60;0.43;;;19.40;57.40;;;;;;5054415;28;20033;-77
2024/04/08 07:07:03;;;;;;;0.68;0.40;;;19.70;56.80;;;;;;5036595;28;20425;-77
2024/04/08 07:09:29;;;;;;;0.30;0.30;;;19.90;55.00;;;;;;5054514;28;20066;-76
2024/04/08 07:11:58;;;;;;;0.82;0.40;;;20.10;55.00;;;;;;5052486;28;20493;-77
2024/04/08 07:14:25;;;;;;;0.65;0.47;;;20.20;54.10;;;;;;5053098;28;20032;-72
2024/04/08 07:16:51;;;;;;;0.80;0.50;;;20.50;53.30;;;;;;5054179;28;20033;-74
2024/04/08 07:19:17;;;;;;;;;;;20.70;53.30;;;;;;5055012;28;20044;-77
2024/04/08 07:21:43;;;;;;;0.73;0.30;;;21.00;53.70;;;;;;5053786;28;20371;-72
2024/04/08 07:24:09;;;;;;;0.50;0.50;;;21.30;51.70;;;;;;5054363;28;20056;-78
2024/04/08 07:26:35;;;;;;;0.50;0.50;;;21.70;50.60;;;;;;5052728;28;20498;-77
2024/04/08 07:29:01;;;;;;;;;;;22.10;49.30;;;;;;5054612;28;20033;-72
2024/04/08 07:31:27;;;;;;;0.98;0.77;;;22.50;51.00;;;;;;5053526;28;19928;-77
2024/04/08 07:33:53;;;;;;;;;;;23.00;48.50;;;;;;5054665;28;20075;-77
2024/04/08 07:36:19;;;;;;;0.68;0.30;;;23.40;49.20;;;;;;5052603;28;19924;-72
2024/04/08 07:38:46;;;;;;;;;;;23.70;46.90;;;;;;5053494;28;20447;-72
2024/04/08 07:41:12;;;;;;;1.30;0.93;;;24.10;47.10;;;;;;5051762;28;19927;-72
2024/04/08 07:43:39;;;;;;;1.23;0.45;;;24.40;44.30;;;;;;5053631;28;20029;-78
2024/04/08 07:46:07;;;;;;;0.93;0.55;;;24.70;43.20;;;;;;5053403;28;20033;-77
2024/04/08 07:48:33;;;;;;;0.43;0.32;;;25.00;42.30;;;;;;5052482;28;20064;-77
2024/04/08 07:50:59;;;;;;;0.65;0.60;;;25.30;41.00;;;;;;5051748;28;20412;-77
2024/04/08 07:53:26;;;;;;;1.13;0.75;;;25.60;39.90;;;;;;5052669;28;20394;-77
2024/04/08 07:55:52;;;;;;;0.38;0.32;;;25.80;38.50;;;;;;5052105;28;20056;-73
2024/04/08 07:58:19;;;;;;;1.05;0.60;;;26.00;38.70;;;;;;5053458;28;20336;-78
2024/04/08 08:01:14;;;;;;;1.08;0.65;;;26.30;37.90;;;;;;5053026;28;20037;-72
2024/04/08 08:03:40;;;;;;;0.40;0.40;;;26.60;37.00;;;;;;5053470;28;20367;-77
2024/04/08 08:06:07;;;;;;;1.25;1.17;;;26.90;36.60;;;;;;5052236;28;20045;-73
2024/04/08 08:08:33;;;;;;;1.27;0.73;;;27.00;36.40;;;;;;5053256;28;20033;-77
2024/04/08 08:11:06;;;;;;;0.30;0.30;;;27.20;35.30;;;;;;5051474;28;20037;-78
2024/04/08 08:13:33;;;;;;;0.63;0.45;;;27.30;35.20;;;;;;5052446;28;20490;-77
2024/04/08 08:16:00;;;;;;;1.25;0.82;;;27.50;35.00;;;;;;5034899;28;20048;-73
2024/04/08 08:18:27;;;;;;;0.55;0.40;;;27.70;34.90;;;;;;5052029;28;20492;-73
2024/04/08 08:20:55;;;;;;;0.25;0.25;;;28.10;34.40;;;;;;5052420;28;20085;-73
2024/04/08 08:23:21;;;;;;;0.28;0.28;;;28.50;33.50;;;;;;5052103;28;20409;-77
2024/04/08 08:25:47;;;;;;;0.77;0.43;;;29.00;33.30;;;;;;5051609;28;20079;-77
2024/04/08 08:28:14;;;;;;;2.42;0.60;;;29.30;31.50;;;;;;5051624;28;20029;-77
2024/04/08 08:30:41;;;;;;;1.13;1.05;;;29.60;30.30;;;;;;5051248;28;20036;-77
2024/04/08 08:33:07;;;;;;;0.85;0.40;;;30.00;29.50;;;;;;5051302;28;20429;-73
2024/04/08 08:35:33;;;;;;;0.30;0.30;;;30.30;28.90;;;;;;5051678;28;20048;-73
2024/04/08 08:37:59;;;;;;;0.40;0.40;;;30.30;28.00;;;;;;5051495;28;20033;-73
2024/04/08 08:40:26;;;;;;;1.10;0.60;;;30.40;28.20;;;;;;5050958;28;20382;-73
2024/04/08 08:42:56;;;;;;;0.73;0.70;;;30.80;27.50;;;;;;5052536;28;20478;-73
2024/04/08 08:45:23;;;;;;;0.98;0.57;;;30.80;27.00;;;;;;5051187;28;20310;-73
2024/04/08 08:47:49;;;;;;;0.73;0.40;;;31.10;27.40;;;;;;5051209;28;20057;-72
2024/04/08 08:50:16;;;;;;;0.88;0.50;;;31.20;27.10;;;;;;5052057;28;20025;-76
2024/04/08 08:52:42;;;;;;;0.38;0.32;;;31.40;26.80;;;;;;5034842;28;20033;-73
2024/04/08 08:55:09;;;;;;;0.70;0.70;;;31.40;27.00;;;;;;5051343;28;20552;-77
2024/04/08 08:57:35;;;;;;;0.40;0.40;;;31.80;26.80;;;;;;5052630;28;20040;-77
2024/04/08 09:00:21;;;;;;;1.23;0.80;;;32.20;26.80;;;;;;5052285;28;20032;-76
2024/04/08 09:02:48;;;;;;;1.38;0.98;;;32.60;26.60;;;;;;5034054;28;20055;-72
2024/04/08 09:05:14;;;;;;;0.77;0.60;;;33.10;25.70;;;;;;5050917;28;20398;-73
2024/04/08 09:07:40;;;;;;;0.60;0.40;;;33.70;24.80;;;;;;5052398;28;20378;-73
2024/04/08 09:10:06;;;;;;;0.55;0.45;;;33.80;23.70;;;;;;5050474;28;20041;-75
2024/04/08 09:12:33;;;;;;;0.95;0.60;;;34.00;23.40;;;;;;5052603;28;20398;-73
2024/04/08 09:14:59;;;;;;;0.40;0.40;;;33.90;23.50;;;;;;5052412;28;20459;-75
2024/04/08 09:17:25;;;;;;;0.45;0.45;;;34.00;23.70;;;;;;5050686;28;20033;-72
2024/04/08 09:19:51;;;;;;;0.65;0.63;;;34.50;22.60;;;;;;5050527;28;20702;-76
2024/04/08 09:22:17;;;;;;;0.95;0.50;;;35.10;23.30;;;;;;5050054;28;20059;-74
2024/04/08 09:24:43;;;;;;;0.47;0.47;;;35.60;22.10;;;;;;5050695;28;20623;-76
2024/04/08 09:27:28;;;;;;;3.75;1.40;;;35.60;21.60;;;;;;5052143;28;20112;-75
2024/04/08 09:29:53;;;;;;;2.20;1.02;;;35.60;21.50;;;;;;5050602;28;20029;-72
2024/04/08 09:32:20;;;;;;;0.63;0.38;;;35.80;21.80;;;;;;5049859;28;20049;-75
2024/04/08 09:34:46;;;;;;;0.40;0.40;;;36.00;21.60;;;;;;5051680;28;20393;-75
2024/04/08 09:37:14;;;;;;;0.47;0.47;;;36.00;21.20;;;;;;5051777;28;20044;-73
2024/04/08 09:39:41;;;;;;;1.25;1.15;;;36.70;20.80;;;;;;5051784;28;20113;-75
2024/04/08 09:42:12;;;;;;;0.82;0.65;;;37.30;19.60;;;;;;5051158;28;20447;-72
2024/04/08 09:44:43;;;;;;;0.40;0.40;;;38.30;19.40;;;;;;5050355;28;20029;-75
2024/04/08 09:47:09;;;;;;;0.65;0.55;;;38.90;18.60;;;;;;5049949;28;20773;-76
2024/04/08 09:49:37;;;;;;;1.10;0.85;;;38.90;18.80;;;;;;5050378;28;20028;-72
2024/04/08 09:52:05;;;;;;;1.05;0.70;;;39.20;18.20;;;;;;5049517;28;20098;-72
2024/04/08 09:54:31;;;;;;;0.93;0.70;;;39.40;17.80;;;;;;5050403;28;20029;-75
2024/04/08 09:57:03;;;;;;;0.52;0.52;;;39.90;17.30;;;;;;5049898;28;20049;-76
2024/04/08 09:59:30;;;;;;;0.60;0.60;;;40.00;16.90;;;;;;5050178;28;20059;-76
2024/04/08 10:01:58;;;;;;;0.50;0.50;;;40.20;16.90;;;;;;5049147;28;20037;-76
2024/04/08 10:04:28;;;;;;;1.33;1.23;;;40.10;16.80;;;;;;5049946;28;20032;-73
2024/04/08 10:06:56;;;;;;;0.80;0.70;;;40.70;16.10;;;;;;5033448;28;20037;-76
2024/04/08 10:09:22;;;;;;;0.63;0.60;;;41.50;15.80;;;;;;5051202;28;20033;-76
2024/04/08 10:12:08;;;;;;;0.60;0.60;;;42.20;15.10;;;;;;5049345;28;20043;-73
2024/04/08 10:14:34;;;;;;;0.77;0.77;;;42.90;14.40;;;;;;5049995;28;20059;-76
2024/04/08 10:17:01;;;;;;;1.00;0.80;;;44.00;14.30;;;;;;5051055;28;20075;-76
2024/04/08 10:19:27;;;;;;;1.08;0.93;;;44.80;13.60;;;;;;5051202;28;20078;-72
2024/04/08 10:22:00;;;;;;;1.45;0.95;;;44.30;13.90;;;;;;5049234;28;20048;-76
2024/04/08 10:24:44;;;;;;;0.77;0.70;;;43.20;14.50;;;;;;5033268;28;20101;-76
2024/04/08 10:27:12;;;;;;;1.13;1.02;;;43.10;15.00;;;;;;5050482;28;20081;-76
2024/04/08 10:29:40;;;;;;;0.52;0.52;;;43.40;14.50;;;;;;5049685;28;20520;-73
2024/04/08 10:32:06;;;;;;;0.70;0.70;;;43.90;14.00;;;;;;5050423;28;20055;-73
2024/04/08 10:34:36;;;;;;;0.90;0.70;;;44.70;13.60;;;;;;5037296;28;20389;-73
2024/04/08 10:37:02;;;;;;;2.35;1.70;;;45.30;13.30;;;;;;5055291;28;20037;-75
2024/04/08 10:39:28;;;;;;;1.08;0.98;;;46.00;13.50;;;;;;5055050;28;20037;-72
2024/04/08 10:42:14;;;;;;;0.98;0.90;;;46.80;13.10;;;;;;5036280;28;20037;-76
2024/04/08 10:44:41;;;;;;;1.52;1.20;;;47.40;12.20;;;;;;5054770;28;20037;-73
2024/04/08 10:47:08;;;;;;;1.02;0.95;;;48.40;11.30;;;;;;5053402;28;20048;-76
2024/04/08 10:49:35;;;;;;;2.05;1.70;;;48.80;9.30;;;;;;5037012;28;20033;-73
2024/04/08 10:52:02;;;;;;;1.67;1.25;;;48.90;10.10;;;;;;5052874;28;20053;-73
2024/04/08 10:54:28;;;;;;;1.33;1.00;;;48.90;10.40;;;;;;5053571;28;20037;-76
2024/04/08 10:56:55;;;;;;;1.92;1.42;;;48.90;10.40;;;;;;5054626;28;20033;-73
2024/04/08 10:59:21;;;;;;;1.85;1.55;;;49.70;9.70;;;;;;5054824;28;20036;-73
2024/04/08 11:01:47;;;;;;;1.15;1.05;;;50.50;8.80;;;;;;5052566;28;20037;-73
2024/04/08 11:04:13;;;;;;;1.20;1.10;;;50.90;9.00;;;;;;5036801;28;20497;-76
2024/04/08 11:06:40;;;;;;;1.27;1.17;;;51.40;9.20;;;;;;5053034;28;20124;-76
2024/04/08 11:09:06;;;;;;;1.35;1.25;;;51.60;8.60;;;;;;5053417;28;20037;-73
2024/04/08 11:11:33;;;;;;;1.40;1.30;;;52.00;9.10;;;;;;5054037;28;20040;-73
2024/04/08 11:13:59;;;;;;;2.08;1.60;;;52.30;8.50;;;;;;5054010;28;20035;-75
2024/04/08 11:16:27;;;;;;;1.67;1.40;;;52.20;7.90;;;;;;5053152;28;20041;-73
2024/04/08 11:18:53;;;;;;;1.27;1.17;;;52.20;8.10;;;;;;5052982;28;20329;-73
2024/04/08 11:21:19;;;;;;;1.67;1.50;;;51.90;7.80;;;;;;5035592;28;20036;-73
2024/04/08 11:23:45;;;;;;;2.13;1.90;;;51.70;8.60;;;;;;5052945;28;20079;-73
2024/04/08 11:26:11;;;;;;;1.83;1.55;;;51.60;8.70;;;;;;5053929;28;20039;-76
2024/04/08 11:28:37;;;;;;;1.30;1.20;;;51.60;8.10;;;;;;5054143;28;20047;-73
2024/04/08 11:31:06;;;;;;;1.30;1.20;;;51.00;8.90;;;;;;5052318;28;20037;-73
2024/04/08 11:33:32;;;;;;;1.58;1.40;;;51.20;8.80;;;;;;5053995;28;20382;-73
2024/04/08 11:35:58;;;;;;;2.13;1.63;;;52.00;7.80;;;;;;5053544;28;20036;-76
2024/04/08 11:38:24;;;;;;;1.58;1.45;;;51.70;8.40;;;;;;5053922;28;20033;-76
2024/04/08 11:40:52;;;;;;;1.50;1.40;;;51.90;8.40;;;;;;5035472;28;20037;-76
2024/04/08 11:43:18;;;;;;;1.58;1.40;;;52.50;8.70;;;;;;5052273;28;20120;-73
2024/04/08 11:45:44;;;;;;;2.20;2.00;;;52.80;7.80;;;;;;5053522;28;20040;-73
2024/04/08 11:48:10;;;;;;;1.85;1.63;;;52.80;8.50;;;;;;5053772;28;20049;-73
2024/04/08 11:50:36;;;;;;;3.03;2.20;;;51.90;7.80;;;;;;5052095;28;20521;-76
2024/04/08 11:53:02;;;;;;;2.28;2.08;;;51.50;9.10;;;;;;5052471;28;20470;-73
2024/04/08 11:55:28;;;;;;;1.92;1.73;;;52.10;9.10;;;;;;5052217;28;20390;-73
2024/04/08 11:57:54;;;;;;;2.20;1.90;;;52.70;8.30;;;;;;5052351;28;20029;-76
2024/04/08 12:00:21;;;;;;;1.73;1.63;;;53.30;7.90;;;;;;5053014;28;20513;-76
2024/04/08 12:02:47;;;;;;;3.08;2.60;;;53.80;7.10;;;;;;5052040;28;20059;-73
2024/04/08 12:05:14;;;;;;;2.10;1.90;;;54.20;6.40;;;;;;5053354;28;20103;-76
2024/04/08 12:07:40;;;;;;;2.33;2.13;;;54.90;6.80;;;;;;5052291;28;20471;-73
2024/04/08 12:10:09;;;;;;;1.95;1.75;;;54.90;6.70;;;;;;5051618;28;20032;-76
2024/04/08 12:12:36;;;;;;;2.65;2.42;;;54.70;7.00;;;;;;5051937;28;20025;-75
2024/04/08 12:15:05;;;;;;;2.90;2.60;;;55.30;7.20;;;;;;5053528;28;20505;-73
2024/04/08 12:17:31;;;;;;;2.90;2.60;;;55.80;7.10;;;;;;5051893;28;20033;-73
2024/04/08 12:19:57;;;;;;;6.22;3.78;;;56.40;6.60;;;;;;5051920;28;20033;-73
2024/04/08 12:22:23;;;;;;;3.03;2.72;;;56.70;6.30;;;;;;5051317;28;20128;-73
2024/04/08 12:24:49;;;;;;;3.10;2.80;;;56.80;6.80;;;;;;5051752;28;20071;-73
2024/04/08 12:27:15;;;;;;;4.82;4.43;;;56.70;6.30;;;;;;5051594;28;20026;-76
2024/04/08 12:29:41;;;;;;;3.58;3.28;;;57.00;6.30;;;;;;5053058;28;20064;-76
2024/04/08 12:32:08;;;;;;;3.10;2.72;;;57.50;6.00;;;;;;5052537;28;20052;-73
2024/04/08 12:34:34;;;;;;;3.40;3.10;;;57.50;6.40;;;;;;5051724;28;20444;-73
2024/04/08 12:37:01;;;;;;;3.90;3.50;;;57.80;6.20;;;;;;5034576;28;20060;-77
2024/04/08 12:39:27;;;;;;;3.85;3.55;;;57.80;6.10;;;;;;5052974;28;20497;-73
2024/04/08 12:41:53;;;;;;;3.50;3.20;;;58.20;6.40;;;;;;5050954;28;20498;-73
2024/04/08 12:44:19;;;;;;;4.30;3.95;;;58.60;6.10;;;;;;5051497;28;20104;-74
2024/04/08 12:46:47;;;;;;;4.55;4.15;;;58.80;6.20;;;;;;5052363;28;20061;-76
2024/04/08 12:49:15;;;;;;;4.30;3.90;;;59.10;6.10;;;;;;5052737;28;20402;-77
2024/04/08 12:51:41;;;;;;;4.75;4.35;;;59.10;5.90;;;;;;5050725;28;20039;-76
2024/04/08 12:54:07;;;;;;;4.97;4.57;;;58.60;5.40;;;;;;5050673;28;20048;-73
2024/04/08 12:56:34;;;;;;;5.32;4.28;;;58.70;5.50;;;;;;5052171;28;20393;-74
2024/04/08 12:59:00;;;;;;;4.60;4.20;;;58.50;5.10;;;;;;5051172;28;20086;-73